createdAt,value
2022-09-23T00:02:18.780Z,11.55
2022-09-23T00:04:46.740Z,9.90
2022-09-23T00:07:14.174Z,11.00
2022-09-23T00:09:41.929Z,12.80
2022-09-23T00:12:11.028Z,11.25
2022-09-23T00:14:39.266Z,10.13
2022-09-23T00:17:06.893Z,11.52
2022-09-23T00:19:34.352Z,10.50
2022-09-23T00:22:01.779Z,12.07
2022-09-23T00:24:32.279Z,11.32
2022-09-23T00:26:59.690Z,9.98
2022-09-23T00:29:28.418Z,10.63
2022-09-23T00:31:55.796Z,11.83
2022-09-23T00:34:23.187Z,10.52
2022-09-23T00:36:50.588Z,11.70
2022-09-23T00:39:17.969Z,10.77
2022-09-23T00:41:45.363Z,11.75
2022-09-23T00:44:31.327Z,10.40
2022-09-23T00:47:00.194Z,10.52
2022-09-23T00:49:29.192Z,10.77
2022-09-23T00:51:59.224Z,10.25
2022-09-23T00:54:27.487Z,10.63
2022-09-23T00:56:55.291Z,10.67
2022-09-23T00:59:24.310Z,12.10
2022-09-23T01:01:54.609Z,10.55
2022-09-23T01:04:23.701Z,10.80
2022-09-23T01:06:51.236Z,11.98
2022-09-23T01:09:18.861Z,11.43
2022-09-23T01:11:50.529Z,11.32
2022-09-23T01:14:31.923Z,12.70
2022-09-23T01:17:03.395Z,10.60
2022-09-23T01:19:43.515Z,10.30
2022-09-23T01:22:13.486Z,10.10
2022-09-23T01:24:47.965Z,10.30
2022-09-23T01:27:20.132Z,11.07
2022-09-23T01:30:04.311Z,10.73
2022-09-23T01:32:38.630Z,11.50
2022-09-23T01:35:08.489Z,10.97
2022-09-23T01:37:37.979Z,12.80
2022-09-23T01:40:07.874Z,12.55
2022-09-23T01:42:37.250Z,10.68
2022-09-23T01:45:07.071Z,12.00
2022-09-23T01:47:37.233Z,12.57
2022-09-23T01:50:27.627Z,13.02
2022-09-23T01:52:56.295Z,12.63
2022-09-23T01:55:25.497Z,12.73
2022-09-23T01:57:56.074Z,15.38
2022-09-23T02:00:24.451Z,13.07
2022-09-23T02:02:55.777Z,13.07
2022-09-23T02:05:25.957Z,14.90
2022-09-23T02:07:57.761Z,15.32
2022-09-23T02:10:26.954Z,17.73
2022-09-23T02:12:57.587Z,14.40
2022-09-23T02:15:27.434Z,14.57
2022-09-23T02:17:58.756Z,14.10
2022-09-23T02:20:28.364Z,14.40
2022-09-23T02:22:57.512Z,16.23
2022-09-23T02:25:26.985Z,16.40
2022-09-23T02:27:57.326Z,14.02
2022-09-23T02:30:27.074Z,12.57
2022-09-23T02:33:01.972Z,15.40
2022-09-23T02:35:33.171Z,12.68
2022-09-23T02:38:04.311Z,15.20
2022-09-23T02:40:38.574Z,15.43
2022-09-23T02:43:08.185Z,15.05
2022-09-23T02:45:38.852Z,14.07
2022-09-23T02:48:08.945Z,15.45
2022-09-23T02:50:37.676Z,14.17
2022-09-23T02:53:05.965Z,15.02
2022-09-23T02:55:33.513Z,12.95
2022-09-23T02:58:01.886Z,12.63
2022-09-23T03:00:34.163Z,14.60
2022-09-23T03:03:07.203Z,14.40
2022-09-23T03:05:38.596Z,14.27
2022-09-23T03:08:16.650Z,15.45
2022-09-23T03:10:49.008Z,14.40
2022-09-23T03:13:18.696Z,14.63
2022-09-23T03:15:52.011Z,15.10
2022-09-23T03:18:20.637Z,15.00
2022-09-23T03:20:51.080Z,15.00
2022-09-23T03:23:20.873Z,15.07
2022-09-23T03:25:50.684Z,15.52
2022-09-23T03:28:20.213Z,14.73
2022-09-23T03:30:47.715Z,14.00
2022-09-23T03:33:16.655Z,14.10
2022-09-23T03:36:03.420Z,14.23
2022-09-23T03:38:34.069Z,14.55
2022-09-23T03:41:04.127Z,17.67
2022-09-23T03:43:35.280Z,15.43
2022-09-23T03:46:07.232Z,15.07
2022-09-23T03:48:34.889Z,15.35
2022-09-23T03:51:09.379Z,15.40
2022-09-23T03:53:39.533Z,14.90
2022-09-23T03:56:06.959Z,16.40
2022-09-23T03:58:34.340Z,14.00
2022-09-23T04:01:01.813Z,14.98
2022-09-23T04:03:29.287Z,14.07
2022-09-23T04:05:56.716Z,13.93
2022-09-23T04:08:24.133Z,16.10
2022-09-23T04:10:54.844Z,13.80
2022-09-23T04:13:22.446Z,14.88
2022-09-23T04:15:50.822Z,17.02
2022-09-23T04:18:18.431Z,13.80
2022-09-23T04:20:46.389Z,14.40
2022-09-23T04:23:13.864Z,14.27
2022-09-23T04:25:45.107Z,14.02
2022-09-23T04:28:14.267Z,13.80
2022-09-23T04:30:43.617Z,13.60
2022-09-23T04:33:11.931Z,14.35
2022-09-23T04:35:40.467Z,13.40
2022-09-23T04:38:09.891Z,14.13
2022-09-23T04:40:37.358Z,15.77
2022-09-23T04:43:04.849Z,15.37
2022-09-23T04:45:33.591Z,13.80
2022-09-23T04:48:01.136Z,15.52
2022-09-23T04:50:29.052Z,12.90
2022-09-23T04:52:56.518Z,12.32
2022-09-23T04:55:23.909Z,13.80
2022-09-23T04:57:51.342Z,12.82
2022-09-23T05:00:18.889Z,14.40
2022-09-23T05:02:48.800Z,13.25
2022-09-23T05:05:21.152Z,13.00
2022-09-23T05:07:48.861Z,12.53
2022-09-23T05:10:16.353Z,14.07
2022-09-23T05:12:43.771Z,15.23
2022-09-23T05:15:14.461Z,12.30
2022-09-23T05:17:42.769Z,12.60
2022-09-23T05:20:13.500Z,13.57
2022-09-23T05:22:40.863Z,13.48
2022-09-23T05:25:08.577Z,12.77
2022-09-23T05:27:36.562Z,13.23
2022-09-23T05:30:04.004Z,12.60
2022-09-23T05:32:31.760Z,13.13
2022-09-23T05:34:59.444Z,12.77
2022-09-23T05:37:28.199Z,12.80
2022-09-23T05:39:55.601Z,11.88
2022-09-23T05:42:22.984Z,14.35
2022-09-23T05:44:50.385Z,14.30
2022-09-23T05:47:17.765Z,13.43
2022-09-23T05:49:59.219Z,14.43
2022-09-23T05:52:28.975Z,12.63
2022-09-23T05:54:56.355Z,13.77
2022-09-23T05:57:23.768Z,13.07
2022-09-23T05:59:51.146Z,13.65
2022-09-23T06:02:18.561Z,13.55
2022-09-23T06:04:46.035Z,13.82
2022-09-23T06:07:13.412Z,14.63
2022-09-23T06:09:42.717Z,13.53
2022-09-23T06:12:10.145Z,17.95
2022-09-23T06:14:37.721Z,15.55
2022-09-23T06:17:05.550Z,16.13
2022-09-23T06:19:32.952Z,15.15
2022-09-23T06:22:00.415Z,13.90
2022-09-23T06:24:31.338Z,16.02
2022-09-23T06:27:00.956Z,16.02
2022-09-23T06:29:29.847Z,18.63
2022-09-23T06:31:59.582Z,16.38
2022-09-23T06:34:27.069Z,17.67
2022-09-23T06:36:55.506Z,19.25
2022-09-23T06:39:22.982Z,16.95
2022-09-23T06:41:50.447Z,17.45
2022-09-23T06:44:19.302Z,19.02
2022-09-23T06:46:46.699Z,17.53
2022-09-23T06:49:14.245Z,19.20
2022-09-23T06:51:42.112Z,18.30
2022-09-23T06:54:09.616Z,17.63
2022-09-23T06:56:39.554Z,16.63
2022-09-23T06:59:07.259Z,17.90
2022-09-23T07:01:36.077Z,20.35
2022-09-23T07:04:03.769Z,15.90
2022-09-23T07:06:31.236Z,16.42
2022-09-23T07:08:58.633Z,14.82
2022-09-23T07:11:26.045Z,15.20
2022-09-23T07:13:53.465Z,17.02
2022-09-23T07:16:21.073Z,15.38
2022-09-23T07:18:49.886Z,15.57
2022-09-23T07:21:18.265Z,16.00
2022-09-23T07:23:46.831Z,17.93
2022-09-23T07:26:14.463Z,15.13
2022-09-23T07:28:41.924Z,15.70
2022-09-23T07:31:10.355Z,16.00
2022-09-23T07:33:38.410Z,12.93
2022-09-23T07:36:11.823Z,18.03
2022-09-23T07:38:44.936Z,18.42
2022-09-23T07:41:14.236Z,15.35
2022-09-23T07:43:41.649Z,17.20
2022-09-23T07:46:10.942Z,21.10
2022-09-23T07:48:38.977Z,17.30
2022-09-23T07:51:12.454Z,19.02
2022-09-23T07:53:40.194Z,18.02
2022-09-23T07:56:07.600Z,18.38
2022-09-23T07:58:36.214Z,14.90
2022-09-23T08:01:05.127Z,17.90
2022-09-23T08:03:32.596Z,16.92
2022-09-23T08:06:10.620Z,16.75
2022-09-23T08:08:40.714Z,14.38
2022-09-23T08:11:09.884Z,15.32
2022-09-23T08:13:37.714Z,17.27
2022-09-23T08:16:05.440Z,14.77
2022-09-23T08:18:32.929Z,14.90
2022-09-23T08:21:00.366Z,15.88
2022-09-23T08:23:27.806Z,14.60
2022-09-23T08:25:59.942Z,14.73
2022-09-23T08:28:27.495Z,17.65
2022-09-23T08:30:54.967Z,15.52
2022-09-23T08:33:23.769Z,14.30
2022-09-23T08:35:51.409Z,15.35
2022-09-23T08:38:18.834Z,14.57
2022-09-23T08:40:48.335Z,14.45
2022-09-23T08:43:19.179Z,13.93
2022-09-23T08:45:46.963Z,12.60
2022-09-23T08:48:16.167Z,12.27
2022-09-23T08:50:45.275Z,14.57
2022-09-23T08:53:16.159Z,15.13
2022-09-23T08:55:46.241Z,13.95
2022-09-23T08:58:26.409Z,13.77
2022-09-23T09:01:00.555Z,13.90
2022-09-23T09:03:31.855Z,14.43
2022-09-23T09:05:59.378Z,14.30
2022-09-23T09:08:29.672Z,15.40
2022-09-23T09:10:58.648Z,13.60
2022-09-23T09:13:31.068Z,13.38
2022-09-23T09:16:07.272Z,13.90
2022-09-23T09:18:36.775Z,13.95
2022-09-23T09:21:08.492Z,11.70
2022-09-23T09:23:41.411Z,17.55
2022-09-23T09:26:12.595Z,14.07
2022-09-23T09:28:43.094Z,11.43
2022-09-23T09:31:27.079Z,12.52
2022-09-23T09:33:57.972Z,13.93
2022-09-23T09:36:31.846Z,13.00
2022-09-23T09:38:59.622Z,13.25
2022-09-23T09:41:31.143Z,11.70
2022-09-23T09:44:00.792Z,12.38
2022-09-23T09:46:37.418Z,11.70
2022-09-23T09:49:09.754Z,13.65
2022-09-23T09:51:39.586Z,12.23
2022-09-23T09:54:17.304Z,13.93
2022-09-23T09:56:45.539Z,13.50
2022-09-23T09:59:22.897Z,11.30
2022-09-23T10:01:50.797Z,13.00
2022-09-23T10:04:22.558Z,11.43
2022-09-23T10:07:05.345Z,12.32
2022-09-23T10:09:34.534Z,14.50
2022-09-23T10:12:11.798Z,12.38
2022-09-23T10:14:40.549Z,12.70
2022-09-23T10:17:08.759Z,12.95
2022-09-23T10:19:37.057Z,11.70
2022-09-23T10:22:06.179Z,11.87
2022-09-23T10:24:36.253Z,12.93
2022-09-23T10:27:07.576Z,14.13
2022-09-23T10:29:38.401Z,11.48
2022-09-23T10:32:25.487Z,11.27
2022-09-23T10:34:54.557Z,13.70
2022-09-23T10:37:25.571Z,11.90
2022-09-23T10:40:12.547Z,14.55
2022-09-23T10:43:04.760Z,13.20
2022-09-23T10:45:52.012Z,12.43
2022-09-23T10:48:27.038Z,12.20
2022-09-23T10:50:55.274Z,12.23
2022-09-23T10:53:28.291Z,11.98
2022-09-23T10:56:03.182Z,11.93
2022-09-23T10:58:42.607Z,12.80
2022-09-23T11:01:15.250Z,11.90
2022-09-23T11:04:01.232Z,12.25
2022-09-23T11:06:35.638Z,10.45
2022-09-23T11:09:14.824Z,10.90
2022-09-23T11:11:47.845Z,10.75
2022-09-23T11:14:30.152Z,11.13
2022-09-23T11:17:07.509Z,11.85
2022-09-23T11:19:49.790Z,11.95
2022-09-23T11:22:26.055Z,11.00
2022-09-23T11:25:11.910Z,12.50
2022-09-23T11:27:45.728Z,10.43
2022-09-23T11:30:14.123Z,11.13
2022-09-23T11:32:53.692Z,9.80
2022-09-23T11:35:24.256Z,10.05
2022-09-23T11:37:56.420Z,10.02
2022-09-23T11:40:25.130Z,10.93
2022-09-23T11:42:55.490Z,10.25
2022-09-23T11:45:25.593Z,9.90
2022-09-23T11:47:54.956Z,9.13
2022-09-23T11:50:27.675Z,10.05
2022-09-23T11:52:58.819Z,9.97
2022-09-23T11:55:28.091Z,7.78
2022-09-23T11:57:57.433Z,9.70
2022-09-23T12:00:26.500Z,7.30
2022-09-23T12:03:06.124Z,10.02
2022-09-23T12:05:35.389Z,8.13
2022-09-23T12:08:06.608Z,8.38
2022-09-23T12:10:40.300Z,7.65
2022-09-23T12:13:11.518Z,8.88
2022-09-23T12:15:44.311Z,8.55
2022-09-23T12:18:35.770Z,9.50
2022-09-23T12:24:22.185Z,11.70
2022-09-23T12:26:51.480Z,10.35
2022-09-23T12:29:18.966Z,8.85
2022-09-23T12:31:47.423Z,9.23
2022-09-23T12:34:22.437Z,9.18
2022-09-23T12:36:49.920Z,9.70
2022-09-23T12:39:22.279Z,10.38
2022-09-23T12:41:51.418Z,10.85
2022-09-23T12:44:30.160Z,11.63
2022-09-23T12:47:21.249Z,9.73
2022-09-23T12:49:49.523Z,12.20
2022-09-23T12:52:25.838Z,10.77
2022-09-23T12:54:57.056Z,10.48
2022-09-23T12:57:43.606Z,10.70
2022-09-23T13:00:24.146Z,11.40
2022-09-23T13:03:09.987Z,9.35
2022-09-23T13:06:00.445Z,9.63
2022-09-23T13:08:27.943Z,12.82
2022-09-23T13:10:58.813Z,9.23
2022-09-23T13:13:27.646Z,10.38
2022-09-23T13:15:55.153Z,10.23
2022-09-23T13:18:26.273Z,9.00
2022-09-23T13:20:54.841Z,8.82
2022-09-23T13:23:23.125Z,9.40
2022-09-23T13:25:52.150Z,9.70
2022-09-23T13:28:26.207Z,11.23
2022-09-23T13:30:55.502Z,11.45
2022-09-23T13:33:32.550Z,9.32
2022-09-23T13:36:02.544Z,11.00
2022-09-23T13:38:32.234Z,10.73
2022-09-23T13:41:01.048Z,9.45
2022-09-23T13:43:32.643Z,9.93
2022-09-23T13:46:01.950Z,9.40
2022-09-23T13:48:29.689Z,8.87
2022-09-23T13:50:57.092Z,10.43
2022-09-23T13:53:25.984Z,12.45
2022-09-23T13:56:06.546Z,10.40
2022-09-23T13:58:35.936Z,10.90
2022-09-23T14:01:06.022Z,10.70
2022-09-23T14:03:36.831Z,12.80
2022-09-23T14:06:06.757Z,12.32
2022-09-23T14:08:34.211Z,12.55
2022-09-23T14:11:01.757Z,12.65
2022-09-23T14:13:32.081Z,11.60
2022-09-23T14:16:02.965Z,11.90
2022-09-23T14:18:33.464Z,13.40
2022-09-23T14:21:01.093Z,12.88
2022-09-23T14:23:28.760Z,15.63
2022-09-23T14:25:56.552Z,13.23
2022-09-23T14:28:24.943Z,12.20
2022-09-23T14:30:53.817Z,14.55
2022-09-23T14:33:26.563Z,13.48
2022-09-23T14:35:55.127Z,14.40
2022-09-23T14:38:44.434Z,15.27
2022-09-23T14:41:17.407Z,13.57
2022-09-23T14:43:48.803Z,13.05
2022-09-23T14:46:18.242Z,17.58
2022-09-23T14:48:52.883Z,17.10
2022-09-23T14:51:20.838Z,18.53
2022-09-23T14:53:48.699Z,18.95
2022-09-23T14:56:20.305Z,20.88
2022-09-23T14:58:52.254Z,21.90
2022-09-23T15:01:25.393Z,23.95
2022-09-23T15:03:54.318Z,23.47
2022-09-23T15:06:23.188Z,22.55
2022-09-23T15:08:52.085Z,21.55
2022-09-23T15:11:19.735Z,20.77
2022-09-23T15:13:49.333Z,21.88
2022-09-23T15:16:17.591Z,21.63
2022-09-23T15:18:45.941Z,23.08
2022-09-23T15:21:16.248Z,25.75
2022-09-23T15:23:45.869Z,27.60
2022-09-23T15:26:15.200Z,27.83
2022-09-23T15:28:43.344Z,25.97
2022-09-23T15:31:12.274Z,21.92
2022-09-23T15:33:39.920Z,27.17
2022-09-23T15:36:09.030Z,29.33
2022-09-23T15:38:42.237Z,26.95
2022-09-23T15:41:09.642Z,26.67
2022-09-23T15:43:37.680Z,28.83
2022-09-23T15:46:06.891Z,22.10
2022-09-23T15:48:37.508Z,21.58
2022-09-23T15:51:06.734Z,21.33
2022-09-23T15:53:34.197Z,20.43
2022-09-23T15:56:03.162Z,18.17
2022-09-23T15:58:30.821Z,16.30
2022-09-23T16:00:58.492Z,17.08
2022-09-23T16:03:28.500Z,14.23
2022-09-23T16:05:58.057Z,15.77
2022-09-23T16:08:25.749Z,12.75
2022-09-23T16:10:53.288Z,13.27
2022-09-23T16:13:22.256Z,12.23
2022-09-23T16:15:49.978Z,11.85
2022-09-23T16:18:17.462Z,11.63
2022-09-23T16:20:45.990Z,11.45
2022-09-23T16:23:19.102Z,11.43
2022-09-23T16:25:46.683Z,10.93
2022-09-23T16:28:14.182Z,11.13
2022-09-23T16:30:43.053Z,9.63
2022-09-23T16:33:10.453Z,9.25
2022-09-23T16:35:38.331Z,10.80
2022-09-23T16:38:05.846Z,11.85
2022-09-23T16:40:33.929Z,10.93
2022-09-23T16:43:04.893Z,9.43
2022-09-23T16:45:32.376Z,11.95
2022-09-23T16:48:01.270Z,10.07
2022-09-23T16:50:29.493Z,9.30
2022-09-23T16:52:56.890Z,9.77
2022-09-23T16:55:25.623Z,9.93
2022-09-23T16:57:53.906Z,9.95
2022-09-23T17:00:39.325Z,10.18
2022-09-23T17:03:25.432Z,9.82
2022-09-23T17:05:55.010Z,11.30
2022-09-23T17:08:22.419Z,10.20
2022-09-23T17:10:56.967Z,10.73
2022-09-23T17:13:25.319Z,11.32
2022-09-23T17:15:52.912Z,10.98
2022-09-23T17:18:22.018Z,11.80
2022-09-23T17:21:00.033Z,10.97
2022-09-23T17:23:28.251Z,11.98
2022-09-23T17:25:55.744Z,9.50
2022-09-23T17:28:23.304Z,11.40
2022-09-23T17:30:51.606Z,12.80
2022-09-23T17:33:19.871Z,12.13
2022-09-23T17:35:48.626Z,13.60
2022-09-23T17:38:16.053Z,12.40
2022-09-23T17:40:49.822Z,13.18
2022-09-23T17:43:20.069Z,14.30
2022-09-23T17:45:49.862Z,13.63
2022-09-23T17:48:19.595Z,15.60
2022-09-23T17:50:56.254Z,16.88
2022-09-23T17:53:23.996Z,17.30
2022-09-23T17:55:55.408Z,16.05
2022-09-23T17:58:24.879Z,15.97
2022-09-23T18:00:52.786Z,15.73
2022-09-23T18:03:20.303Z,14.75
2022-09-23T18:05:47.707Z,15.90
2022-09-23T18:08:16.461Z,16.70
2022-09-23T18:10:43.828Z,14.80
2022-09-23T18:13:11.192Z,17.30
2022-09-23T18:15:38.868Z,19.67
2022-09-23T18:18:06.675Z,23.58
2022-09-23T18:20:34.053Z,22.25
2022-09-23T18:23:01.509Z,20.00
2022-09-23T18:25:39.191Z,21.60
2022-09-23T18:28:07.350Z,17.65
2022-09-23T18:30:34.736Z,16.45
2022-09-23T18:33:03.318Z,16.35
2022-09-23T18:35:30.780Z,16.70
2022-09-23T18:37:58.155Z,15.70
2022-09-23T18:40:26.087Z,16.08
2022-09-23T18:42:54.883Z,17.17
2022-09-23T18:45:22.319Z,18.27
2022-09-23T18:48:07.402Z,18.07
2022-09-23T18:50:40.695Z,16.90
2022-09-23T18:53:08.584Z,15.98
2022-09-23T18:55:36.261Z,16.30
2022-09-23T18:58:07.410Z,17.45
2022-09-23T19:00:35.951Z,15.37
2022-09-23T19:03:03.560Z,12.43
2022-09-23T19:05:33.752Z,14.45
2022-09-23T19:08:01.212Z,17.20
2022-09-23T19:10:28.582Z,14.18
2022-09-23T19:12:56.011Z,15.00
2022-09-23T19:15:24.715Z,15.05
2022-09-23T19:17:52.961Z,13.20
2022-09-23T19:20:20.764Z,14.77
2022-09-23T19:22:48.341Z,16.30
2022-09-23T19:25:17.377Z,15.17
2022-09-23T19:27:44.819Z,14.50
2022-09-23T19:30:13.451Z,14.30
2022-09-23T19:32:44.818Z,14.38
2022-09-23T19:35:16.057Z,14.60
2022-09-23T19:37:45.960Z,16.23
2022-09-23T19:40:13.455Z,14.85
2022-09-23T19:42:41.058Z,13.45
2022-09-23T19:45:08.795Z,15.75
2022-09-23T19:47:36.812Z,12.98
2022-09-23T19:50:07.216Z,13.27
2022-09-23T19:52:34.612Z,12.13
2022-09-23T19:55:01.964Z,11.57
2022-09-23T19:57:33.504Z,12.00
2022-09-23T20:00:00.960Z,11.20
2022-09-23T20:02:28.394Z,13.50
2022-09-23T20:04:55.886Z,11.75
2022-09-23T20:07:24.833Z,12.27
2022-09-23T20:09:52.246Z,12.40
2022-09-23T20:12:20.066Z,12.88
2022-09-23T20:14:47.448Z,13.37
2022-09-23T20:17:14.894Z,11.90
2022-09-23T20:19:42.311Z,12.43
2022-09-23T20:22:32.920Z,14.50
2022-09-23T20:25:02.488Z,15.80
2022-09-23T20:27:31.106Z,14.90
2022-09-23T20:29:58.555Z,14.23
2022-09-23T20:32:26.427Z,14.65
2022-09-23T20:34:53.804Z,16.15
2022-09-23T20:37:21.657Z,16.10
2022-09-23T20:39:49.076Z,16.50
2022-09-23T20:42:19.259Z,16.92
2022-09-23T20:44:47.335Z,16.27
2022-09-23T20:47:15.751Z,16.95
2022-09-23T20:49:43.888Z,15.93
2022-09-23T20:52:11.594Z,16.70
2022-09-23T20:54:39.167Z,16.48
2022-09-23T20:57:06.634Z,17.48
2022-09-23T20:59:35.715Z,18.52
2022-09-23T21:02:03.219Z,20.95
2022-09-23T21:04:31.804Z,20.07
2022-09-23T21:06:59.361Z,18.67
2022-09-23T21:09:28.139Z,21.08
2022-09-23T21:11:55.765Z,21.40
2022-09-23T21:14:23.327Z,20.92
2022-09-23T21:16:52.735Z,20.47
2022-09-23T21:19:20.988Z,22.10
2022-09-23T21:21:48.375Z,20.98
2022-09-23T21:24:45.656Z,21.80
2022-09-23T21:27:03.801Z,22.40
2022-09-23T21:29:31.211Z,23.70
2022-09-23T21:31:59.952Z,23.10
2022-09-23T21:34:28.199Z,23.30
2022-09-23T21:36:56.603Z,25.77
2022-09-23T21:39:24.159Z,24.65
2022-09-23T21:41:51.597Z,24.67
2022-09-23T21:44:19.059Z,24.10
2022-09-23T21:46:46.525Z,24.33
2022-09-23T21:49:15.420Z,29.50
2022-09-23T21:51:42.834Z,26.83
2022-09-23T21:54:12.480Z,29.00
2022-09-23T21:56:39.897Z,26.75
2022-09-23T21:59:07.634Z,33.92
2022-09-23T22:01:36.206Z,31.15
2022-09-23T22:04:07.572Z,28.17
2022-09-23T22:06:37.964Z,34.27
2022-09-23T22:09:08.602Z,31.88
2022-09-23T22:11:54.661Z,28.50
2022-09-23T22:14:25.440Z,30.02
2022-09-23T22:16:53.675Z,25.77
2022-09-23T22:19:21.055Z,28.87
2022-09-23T22:21:50.552Z,27.67
2022-09-23T22:24:18.058Z,29.42
2022-09-23T22:26:45.546Z,25.77
2022-09-23T22:29:31.692Z,28.33
2022-09-23T22:32:17.033Z,27.30
2022-09-23T22:34:51.515Z,23.85
2022-09-23T22:37:21.915Z,26.25
2022-09-23T22:39:49.281Z,24.00
2022-09-23T22:42:16.688Z,23.70
2022-09-23T22:44:44.387Z,23.37
2022-09-23T22:47:11.767Z,24.77
2022-09-23T22:49:39.211Z,23.70
2022-09-23T22:52:07.797Z,22.23
2022-09-23T22:54:36.587Z,24.13
2022-09-23T22:57:05.079Z,21.33
2022-09-23T22:59:32.549Z,21.17
2022-09-23T23:02:02.324Z,21.13
2022-09-23T23:04:30.408Z,20.90
2022-09-23T23:06:58.458Z,21.58
2022-09-23T23:09:25.842Z,21.90
2022-09-23T23:11:54.615Z,19.85
2022-09-23T23:14:22.355Z,18.77
2022-09-23T23:16:49.768Z,20.02
2022-09-23T23:19:19.097Z,20.25
2022-09-23T23:21:46.693Z,19.10
2022-09-23T23:24:15.187Z,20.40
2022-09-23T23:26:42.732Z,21.00
2022-09-23T23:29:12.671Z,18.92
2022-09-23T23:31:40.337Z,20.33
2022-09-23T23:34:09.081Z,19.83
2022-09-23T23:36:36.523Z,21.85
2022-09-23T23:39:03.904Z,19.33
2022-09-23T23:41:31.480Z,19.05
2022-09-23T23:43:59.476Z,20.40
2022-09-23T23:46:29.336Z,21.53
2022-09-23T23:48:57.374Z,22.02
2022-09-23T23:51:26.241Z,20.20
2022-09-23T23:53:54.181Z,20.77
2022-09-23T23:56:22.499Z,18.85
2022-09-23T23:58:54.156Z,20.03
